Time;durP1;ratioP1;P1;durP2;ratioP2;P2;SDS_P1;SDS_P2;PMS_P1;PMS_P2;Temp;Humidity;BMP_temperature;BMP_pressure;BME280_temperature;BME280_humidity;BME280_pressure;Samples;Min_cycle;Max_cycle;Signal;HPM_P1;HPM_P2
2023/08/11 00:02:02;;;;;;;9.60;7.75;;;;;;;;;;5063469;28;20040;-70
2023/08/11 00:04:32;;;;;;;9.48;6.88;;;;;;;;;;5062104;28;20044;-70
2023/08/11 00:07:00;;;;;;;8.88;7.97;;;;;;;;;;5041933;28;20041;-70
2023/08/11 00:09:27;;;;;;;10.98;8.60;;;;;;;;;;5068263;28;20040;-69
2023/08/11 00:11:55;;;;;;;10.13;8.70;;;;;;;;;;5063354;28;20150;-69
2023/08/11 00:14:22;;;;;;;10.90;8.57;;;;;;;;;;5054053;28;20117;-69
2023/08/11 00:16:50;;;;;;;10.80;8.75;;;;;;;;;;5065026;28;20047;-69
2023/08/11 00:19:17;;;;;;;9.98;8.80;;;;;;;;;;5057861;28;20120;-69
2023/08/11 00:21:45;;;;;;;9.07;8.20;;;;;;;;;;5064319;28;20047;-69
2023/08/11 00:24:12;;;;;;;10.40;8.43;;;;;;;;;;5062283;28;20474;-69
2023/08/11 00:26:40;;;;;;;11.00;8.63;;;;;;;;;;5069183;28;20033;-69
2023/08/11 00:29:07;;;;;;;10.02;8.32;;;;;;;;;;5034383;28;20044;-69
2023/08/11 00:31:35;;;;;;;11.55;8.63;;;;;;;;;;5037069;28;20044;-69
2023/08/11 00:34:03;;;;;;;11.80;8.65;;;;;;;;;;5039938;28;20438;-68
2023/08/11 00:36:31;;;;;;;10.85;9.10;;;;;;;;;;5041657;28;20040;-70
2023/08/11 00:39:00;;;;;;;10.05;9.05;;;;;;;;;;5045027;28;20102;-70
2023/08/11 00:41:28;;;;;;;10.48;8.90;;;;;;;;;;5059237;28;20036;-68
2023/08/11 00:43:55;;;;;;;10.18;9.18;;;;;;;;;;5064148;28;20494;-68
2023/08/11 00:46:24;;;;;;;10.38;9.25;;;;;;;;;;5055607;28;20066;-68
2023/08/11 00:48:51;;;;;;;10.55;9.55;;;;;;;;;;5044250;28;20051;-68
2023/08/11 00:51:21;;;;;;;11.88;9.68;;;;;;;;;;5039164;28;20497;-68
2023/08/11 00:53:49;;;;;;;15.52;10.48;;;;;;;;;;5043898;28;20049;-68
2023/08/11 00:56:22;;;;;;;9.90;8.95;;;;;;;;;;5062433;28;20090;-68
2023/08/11 00:58:50;;;;;;;10.43;9.27;;;;;;;;;;5055167;28;20064;-67
2023/08/11 01:01:18;;;;;;;11.43;10.30;;;;;;;;;;5055326;28;20044;-68
2023/08/11 01:03:47;;;;;;;11.40;9.13;;;;;;;;;;5067911;28;20037;-68
2023/08/11 01:06:16;;;;;;;9.82;8.77;;;;;;;;;;5068190;28;20075;-68
2023/08/11 01:08:47;;;;;;;9.75;8.75;;;;;;;;;;5073030;28;20066;-68
2023/08/11 01:11:22;;;;;;;12.70;10.30;;;;;;;;;;5056681;28;20447;-68
2023/08/11 01:13:54;;;;;;;9.70;8.70;;;;;;;;;;5042090;28;20040;-68
2023/08/11 01:16:22;;;;;;;10.68;8.98;;;;;;;;;;5043773;28;20143;-68
2023/08/11 01:18:50;;;;;;;11.10;9.30;;;;;;;;;;5061643;28;20068;-67
2023/08/11 01:21:18;;;;;;;12.85;9.90;;;;;;;;;;5052873;28;20033;-67
2023/08/11 01:23:45;;;;;;;9.40;8.43;;;;;;;;;;5039853;28;20418;-67
2023/08/11 01:26:13;;;;;;;9.35;8.18;;;;;;;;;;5034828;28;20049;-68
2023/08/11 01:28:41;;;;;;;9.20;7.80;;;;;;;;;;5039622;28;20057;-67
2023/08/11 01:31:10;;;;;;;8.15;6.85;;;;;;;;;;5034856;28;20049;-68
2023/08/11 01:33:38;;;;;;;7.72;6.10;;;;;;;;;;5053648;28;20095;-67
2023/08/11 01:36:08;;;;;;;7.35;6.20;;;;;;;;;;5042140;28;20095;-67
2023/08/11 01:38:35;;;;;;;7.60;6.25;;;;;;;;;;5052999;28;20091;-67
2023/08/11 01:41:03;;;;;;;6.18;5.57;;;;;;;;;;5035980;28;20041;-68
2023/08/11 01:43:30;;;;;;;7.78;6.10;;;;;;;;;;5033092;28;20087;-68
2023/08/11 01:45:58;;;;;;;6.38;5.65;;;;;;;;;;5036389;28;20088;-67
2023/08/11 01:48:27;;;;;;;7.32;5.40;;;;;;;;;;5035495;28;20482;-67
2023/08/11 01:50:55;;;;;;;5.95;5.30;;;;;;;;;;5054474;28;20044;-67
2023/08/11 01:53:23;;;;;;;6.57;5.65;;;;;;;;;;5037814;28;20397;-67
2023/08/11 01:55:51;;;;;;;6.60;5.35;;;;;;;;;;5045973;28;20090;-68
2023/08/11 01:58:19;;;;;;;5.60;5.00;;;;;;;;;;5038477;28;20072;-67
2023/08/11 02:00:46;;;;;;;5.53;4.75;;;;;;;;;;5052214;28;20045;-67
2023/08/11 02:03:14;;;;;;;5.55;4.97;;;;;;;;;;5054689;28;20068;-67
2023/08/11 02:05:41;;;;;;;5.75;4.90;;;;;;;;;;5049773;28;20479;-68
2023/08/11 02:08:10;;;;;;;5.47;4.57;;;;;;;;;;5049832;28;20061;-68
2023/08/11 02:10:38;;;;;;;6.32;5.28;;;;;;;;;;5047874;28;20045;-67
2023/08/11 02:13:05;;;;;;;5.65;4.72;;;;;;;;;;5042533;28;20039;-67
2023/08/11 02:15:33;;;;;;;6.05;4.65;;;;;;;;;;5021297;28;20045;-68
2023/08/11 02:18:02;;;;;;;5.00;4.50;;;;;;;;;;5060082;28;20390;-67
2023/08/11 02:20:32;;;;;;;5.78;4.82;;;;;;;;;;5055515;28;20040;-68
2023/08/11 02:23:00;;;;;;;4.55;4.13;;;;;;;;;;5055918;28;20044;-67
2023/08/11 02:25:28;;;;;;;6.15;4.22;;;;;;;;;;5060620;28;20136;-67
2023/08/11 02:27:55;;;;;;;4.45;3.85;;;;;;;;;;5056480;28;20056;-67
2023/08/11 02:30:23;;;;;;;5.60;4.50;;;;;;;;;;5037455;28;20477;-69
2023/08/11 02:32:51;;;;;;;6.15;4.45;;;;;;;;;;5062227;28;20052;-67
2023/08/11 02:35:18;;;;;;;6.32;4.20;;;;;;;;;;5048218;28;20094;-67
2023/08/11 02:37:48;;;;;;;6.75;4.35;;;;;;;;;;5035004;28;20059;-68
2023/08/11 02:40:19;;;;;;;5.07;4.32;;;;;;;;;;5048324;28;20041;-67
2023/08/11 02:43:07;;;;;;;5.00;4.50;;;;;;;;;;5053400;28;20041;-67
2023/08/11 02:45:35;;;;;;;6.35;4.10;;;;;;;;;;5039727;28;20052;-68
2023/08/11 02:48:03;;;;;;;6.13;4.80;;;;;;;;;;5059061;28;20037;-67
2023/08/11 02:50:31;;;;;;;5.57;4.72;;;;;;;;;;5041342;28;20548;-69
2023/08/11 02:52:59;;;;;;;4.90;4.40;;;;;;;;;;5043166;28;20402;-68
2023/08/11 02:55:26;;;;;;;7.13;4.53;;;;;;;;;;5042130;28;20457;-69
2023/08/11 02:57:54;;;;;;;4.78;4.28;;;;;;;;;;5059025;28;20078;-68
2023/08/11 03:00:21;;;;;;;6.70;4.60;;;;;;;;;;5062227;28;20467;-68
2023/08/11 03:02:49;;;;;;;5.40;4.80;;;;;;;;;;5059758;28;20466;-68
2023/08/11 03:05:18;;;;;;;5.63;4.90;;;;;;;;;;5031216;28;20127;-68
2023/08/11 03:07:50;;;;;;;6.72;5.00;;;;;;;;;;5044755;28;20064;-68
2023/08/11 03:10:18;;;;;;;4.93;4.43;;;;;;;;;;5060380;28;20448;-68
2023/08/11 03:12:45;;;;;;;6.65;5.10;;;;;;;;;;5047644;28;20062;-68
2023/08/11 03:15:13;;;;;;;5.70;5.03;;;;;;;;;;5061448;28;20384;-68
2023/08/11 03:17:42;;;;;;;6.60;5.30;;;;;;;;;;5042995;28;20043;-69
2023/08/11 03:20:12;;;;;;;6.97;6.07;;;;;;;;;;5060550;28;20047;-69
2023/08/11 03:22:43;;;;;;;7.68;6.53;;;;;;;;;;5050818;28;20064;-69
2023/08/11 03:25:12;;;;;;;7.32;6.10;;;;;;;;;;5044641;28;20548;-69
2023/08/11 03:27:42;;;;;;;6.97;6.28;;;;;;;;;;5046517;28;20537;-68
2023/08/11 03:30:18;;;;;;;7.50;6.10;;;;;;;;;;5044159;28;20589;-68
2023/08/11 03:32:51;;;;;;;7.18;5.97;;;;;;;;;;5044851;28;20117;-68
2023/08/11 03:35:20;;;;;;;8.52;6.60;;;;;;;;;;5041848;28;20048;-67
2023/08/11 03:37:50;;;;;;;11.40;6.53;;;;;;;;;;5049075;28;20037;-67
2023/08/11 03:40:17;;;;;;;8.85;6.65;;;;;;;;;;5048288;28;20048;-67
2023/08/11 03:42:52;;;;;;;8.95;6.07;;;;;;;;;;5044105;28;20082;-68
2023/08/11 03:45:20;;;;;;;7.32;6.22;;;;;;;;;;5043687;28;20048;-69
2023/08/11 03:47:48;;;;;;;7.63;6.70;;;;;;;;;;5046043;28;20099;-69
2023/08/11 03:50:20;;;;;;;9.07;7.10;;;;;;;;;;5057367;28;20065;-68
2023/08/11 03:52:48;;;;;;;8.52;7.68;;;;;;;;;;5044139;28;20079;-68
2023/08/11 03:55:16;;;;;;;9.30;8.25;;;;;;;;;;5047182;28;20091;-68
2023/08/11 03:57:45;;;;;;;11.00;8.05;;;;;;;;;;5042447;28;20044;-68
2023/08/11 04:00:16;;;;;;;10.10;7.93;;;;;;;;;;5045893;28;20053;-68
2023/08/11 04:02:50;;;;;;;9.85;7.85;;;;;;;;;;5048934;28;20041;-68
2023/08/11 04:05:19;;;;;;;13.20;8.07;;;;;;;;;;5044573;28;20061;-68
2023/08/11 04:07:46;;;;;;;11.68;8.63;;;;;;;;;;5044610;28;20037;-68
2023/08/11 04:10:15;;;;;;;10.65;8.13;;;;;;;;;;5040869;28;20132;-67
2023/08/11 04:12:42;;;;;;;7.70;6.75;;;;;;;;;;5052259;28;20048;-67
2023/08/11 04:15:10;;;;;;;8.80;7.63;;;;;;;;;;5055579;28;20041;-67
2023/08/11 04:17:38;;;;;;;10.40;7.60;;;;;;;;;;5057817;28;20123;-67
2023/08/11 04:20:11;;;;;;;8.82;6.82;;;;;;;;;;5042127;28;20103;-67
2023/08/11 04:22:42;;;;;;;9.60;6.82;;;;;;;;;;5045082;28;20502;-69
2023/08/11 04:25:11;;;;;;;10.27;7.13;;;;;;;;;;5042723;28;20094;-68
2023/08/11 04:27:42;;;;;;;9.18;7.13;;;;;;;;;;5040018;28;20099;-68
2023/08/11 04:30:10;;;;;;;10.23;7.55;;;;;;;;;;5047080;28;20131;-68
2023/08/11 04:32:39;;;;;;;9.07;7.25;;;;;;;;;;5058621;28;20514;-68
2023/08/11 04:35:08;;;;;;;8.48;6.97;;;;;;;;;;5055517;28;20770;-68
2023/08/11 04:37:38;;;;;;;8.52;6.78;;;;;;;;;;5041732;28;20094;-68
2023/08/11 04:40:09;;;;;;;8.93;7.13;;;;;;;;;;5055040;28;20040;-68
2023/08/11 04:42:38;;;;;;;9.07;6.35;;;;;;;;;;5042599;28;20127;-68
2023/08/11 04:45:08;;;;;;;8.18;6.68;;;;;;;;;;5044378;28;20037;-68
2023/08/11 04:47:37;;;;;;;7.85;6.75;;;;;;;;;;5044774;28;20044;-68
2023/08/11 04:50:08;;;;;;;7.05;6.32;;;;;;;;;;5040825;28;20033;-68
2023/08/11 04:52:35;;;;;;;8.60;6.88;;;;;;;;;;5043766;28;20118;-68
2023/08/11 04:55:03;;;;;;;8.65;6.60;;;;;;;;;;5039746;28;20041;-68
2023/08/11 04:57:31;;;;;;;8.20;5.90;;;;;;;;;;5042991;28;20501;-68
2023/08/11 04:59:59;;;;;;;8.15;6.43;;;;;;;;;;5049300;28;20063;-68
2023/08/11 05:02:30;;;;;;;9.65;6.40;;;;;;;;;;5057509;28;20051;-68
2023/08/11 05:04:57;;;;;;;10.50;5.88;;;;;;;;;;5057479;28;20132;-69
2023/08/11 05:07:26;;;;;;;9.25;6.57;;;;;;;;;;5055507;28;20064;-68
2023/08/11 05:09:54;;;;;;;7.47;5.88;;;;;;;;;;5050345;28;20044;-68
2023/08/11 05:12:21;;;;;;;7.60;5.45;;;;;;;;;;5057212;28;20552;-68
2023/08/11 05:14:49;;;;;;;7.43;5.28;;;;;;;;;;5051553;28;20037;-68
2023/08/11 05:17:16;;;;;;;7.53;5.30;;;;;;;;;;5054486;28;20044;-68
2023/08/11 05:19:44;;;;;;;7.25;5.20;;;;;;;;;;5063128;28;20036;-69
2023/08/11 05:22:12;;;;;;;9.48;5.65;;;;;;;;;;5072218;28;20135;-68
2023/08/11 05:24:39;;;;;;;7.25;4.65;;;;;;;;;;5058242;28;20049;-68
2023/08/11 05:27:08;;;;;;;7.65;4.78;;;;;;;;;;5064521;28;20038;-68
2023/08/11 05:29:36;;;;;;;6.28;4.38;;;;;;;;;;5052761;28;20056;-68
2023/08/11 05:32:04;;;;;;;5.13;4.40;;;;;;;;;;5035290;28;20040;-68
2023/08/11 05:34:31;;;;;;;7.95;4.60;;;;;;;;;;5052769;28;20390;-67
2023/08/11 05:36:59;;;;;;;6.18;4.50;;;;;;;;;;5052599;28;20044;-67
2023/08/11 05:39:28;;;;;;;6.75;4.28;;;;;;;;;;5052589;28;20494;-67
2023/08/11 05:41:56;;;;;;;7.07;4.40;;;;;;;;;;5052785;28;20406;-67
2023/08/11 05:44:24;;;;;;;7.85;4.60;;;;;;;;;;5052885;28;20041;-67
2023/08/11 05:46:51;;;;;;;4.65;3.58;;;;;;;;;;5052408;28;20033;-68
2023/08/11 05:49:19;;;;;;;7.53;3.85;;;;;;;;;;5052531;28;20047;-68
2023/08/11 05:51:46;;;;;;;7.95;4.57;;;;;;;;;;5052483;28;20044;-68
2023/08/11 05:54:14;;;;;;;8.88;4.13;;;;;;;;;;5052762;28;20036;-70
2023/08/11 05:56:41;;;;;;;5.32;4.03;;;;;;;;;;5052483;28;20048;-68
2023/08/11 05:59:09;;;;;;;6.20;4.60;;;;;;;;;;5052089;28;20139;-69
2023/08/11 06:01:37;;;;;;;7.93;4.20;;;;;;;;;;5052241;28;20088;-67
2023/08/11 06:04:04;;;;;;;7.57;3.97;;;;;;;;;;5051997;28;20040;-68
2023/08/11 06:06:32;;;;;;;8.05;4.45;;;;;;;;;;5052383;28;20609;-67
2023/08/11 06:08:59;;;;;;;7.05;3.63;;;;;;;;;;5050492;28;20490;-67
2023/08/11 06:11:27;;;;;;;5.63;3.50;;;;;;;;;;5052067;28;20204;-68
2023/08/11 06:13:54;;;;;;;7.97;3.72;;;;;;;;;;5061839;28;20566;-67
2023/08/11 06:16:22;;;;;;;5.78;3.83;;;;;;;;;;5072138;28;20124;-67
2023/08/11 06:18:50;;;;;;;5.35;3.60;;;;;;;;;;5071889;28;20486;-69
2023/08/11 06:21:17;;;;;;;6.47;4.18;;;;;;;;;;5072166;28;20123;-68
2023/08/11 06:23:45;;;;;;;8.52;4.32;;;;;;;;;;5072358;28;20102;-68
2023/08/11 06:26:12;;;;;;;5.25;4.05;;;;;;;;;;5072022;28;20102;-68
2023/08/11 06:28:41;;;;;;;8.95;4.30;;;;;;;;;;5071897;28;20064;-68
2023/08/11 06:31:12;;;;;;;8.27;4.00;;;;;;;;;;5054297;28;20041;-68
2023/08/11 06:33:39;;;;;;;5.28;4.18;;;;;;;;;;5074096;28;20115;-68
2023/08/11 06:36:07;;;;;;;6.68;4.15;;;;;;;;;;5075577;28;20039;-68
2023/08/11 06:38:35;;;;;;;4.80;3.78;;;;;;;;;;5074948;28;20450;-68
2023/08/11 06:41:03;;;;;;;5.70;4.13;;;;;;;;;;5075104;28;20075;-68
2023/08/11 06:43:31;;;;;;;6.18;4.28;;;;;;;;;;5072243;28;20474;-68
2023/08/11 06:45:58;;;;;;;6.50;4.18;;;;;;;;;;5074015;28;20513;-68
2023/08/11 06:48:28;;;;;;;5.28;4.15;;;;;;;;;;5075706;28;20044;-68
2023/08/11 06:50:58;;;;;;;6.38;3.60;;;;;;;;;;5075618;28;20490;-69
2023/08/11 06:53:25;;;;;;;6.60;4.22;;;;;;;;;;5075527;28;20087;-68
2023/08/11 06:55:53;;;;;;;7.60;3.97;;;;;;;;;;5075763;28;20036;-70
2023/08/11 06:58:20;;;;;;;6.68;3.90;;;;;;;;;;5075370;28;20045;-70
2023/08/11 07:00:52;;;;;;;5.40;3.70;;;;;;;;;;5058280;28;20051;-69
2023/08/11 07:03:20;;;;;;;7.15;3.95;;;;;;;;;;5075462;28;20061;-70
2023/08/11 07:05:51;;;;;;;5.95;4.65;;;;;;;;;;5075404;28;20072;-68
2023/08/11 07:08:20;;;;;;;9.30;4.15;;;;;;;;;;5057696;28;20045;-70
2023/08/11 07:10:47;;;;;;;5.68;3.75;;;;;;;;;;5075342;28;20089;-71
2023/08/11 07:13:15;;;;;;;10.23;4.32;;;;;;;;;;5075000;28;20147;-70
2023/08/11 07:15:42;;;;;;;7.95;4.53;;;;;;;;;;5057176;28;20500;-69
2023/08/11 07:18:10;;;;;;;5.65;4.45;;;;;;;;;;5074898;28;20444;-69
2023/08/11 07:20:42;;;;;;;6.78;4.55;;;;;;;;;;5057104;28;20045;-70
2023/08/11 07:23:10;;;;;;;6.30;4.80;;;;;;;;;;5074813;28;20060;-70
2023/08/11 07:25:38;;;;;;;7.82;4.63;;;;;;;;;;5075161;28;20045;-69
2023/08/11 07:28:06;;;;;;;9.82;5.05;;;;;;;;;;5074825;28;20384;-68
2023/08/11 07:30:33;;;;;;;7.55;5.07;;;;;;;;;;5074815;28;20494;-69
2023/08/11 07:33:01;;;;;;;6.60;4.60;;;;;;;;;;5074880;28;20063;-69
2023/08/11 07:35:30;;;;;;;7.90;4.55;;;;;;;;;;5056548;28;20044;-70
2023/08/11 07:37:58;;;;;;;6.45;5.25;;;;;;;;;;5074830;28;20461;-69
2023/08/11 07:40:25;;;;;;;7.00;5.28;;;;;;;;;;5074512;28;20072;-68
2023/08/11 07:42:53;;;;;;;6.63;4.50;;;;;;;;;;5074641;28;20039;-70
2023/08/11 07:45:20;;;;;;;6.75;4.72;;;;;;;;;;5074252;28;20051;-68
2023/08/11 07:47:48;;;;;;;10.07;4.78;;;;;;;;;;5074466;28;20079;-68
2023/08/11 07:50:15;;;;;;;6.28;4.30;;;;;;;;;;5074600;28;20044;-68
2023/08/11 07:52:43;;;;;;;9.13;4.40;;;;;;;;;;5074349;28;20435;-68
2023/08/11 07:55:10;;;;;;;7.38;4.47;;;;;;;;;;5074379;28;20777;-69
2023/08/11 07:57:38;;;;;;;11.50;4.07;;;;;;;;;;5056503;28;20721;-70
2023/08/11 08:00:06;;;;;;;5.07;3.70;;;;;;;;;;5074049;28;20400;-69
2023/08/11 08:02:41;;;;;;;7.20;4.30;;;;;;;;;;5056857;28;20041;-70
2023/08/11 08:05:09;;;;;;;6.13;3.30;;;;;;;;;;5074349;28;20040;-68
2023/08/11 08:07:40;;;;;;;5.07;3.83;;;;;;;;;;5056284;28;20044;-68
2023/08/11 08:10:11;;;;;;;5.38;3.53;;;;;;;;;;5073971;28;20110;-68
2023/08/11 08:12:39;;;;;;;5.93;4.20;;;;;;;;;;5073716;28;20595;-68
2023/08/11 08:15:07;;;;;;;9.38;8.02;;;;;;;;;;5074059;28;20194;-68
2023/08/11 08:17:35;;;;;;;4.78;3.20;;;;;;;;;;5073963;28;20063;-69
2023/08/11 08:20:26;;;;;;;7.30;3.22;;;;;;;;;;5073967;28;20045;-68
2023/08/11 08:22:52;;;;;;;4.70;3.30;;;;;;;;;;5055928;28;20045;-67
2023/08/11 08:25:20;;;;;;;4.22;3.22;;;;;;;;;;5073824;28;20131;-67
2023/08/11 08:27:47;;;;;;;4.25;3.40;;;;;;;;;;5055800;28;20079;-69
2023/08/11 08:30:27;;;;;;;4.88;3.70;;;;;;;;;;5073799;28;20036;-68
2023/08/11 08:32:54;;;;;;;5.85;4.25;;;;;;;;;;5073953;28;20046;-68
2023/08/11 08:35:22;;;;;;;4.82;3.50;;;;;;;;;;5073710;28;20084;-68
2023/08/11 08:37:49;;;;;;;3.70;2.90;;;;;;;;;;5073662;28;20051;-70
2023/08/11 08:40:19;;;;;;;3.22;2.90;;;;;;;;;;5073547;28;20072;-69
2023/08/11 08:42:46;;;;;;;4.43;2.88;;;;;;;;;;5073568;28;20588;-67
2023/08/11 08:45:14;;;;;;;4.32;3.50;;;;;;;;;;5073433;28;20055;-69
2023/08/11 08:47:42;;;;;;;6.90;3.50;;;;;;;;;;5073495;28;21092;-68
2023/08/11 08:50:11;;;;;;;3.58;3.00;;;;;;;;;;5073528;28;20052;-69
2023/08/11 08:52:38;;;;;;;7.28;2.60;;;;;;;;;;5073343;28;20051;-68
2023/08/11 08:55:06;;;;;;;3.67;2.90;;;;;;;;;;5072801;28;20045;-69
2023/08/11 08:57:34;;;;;;;5.43;2.78;;;;;;;;;;5072952;28;20119;-68
2023/08/11 09:00:01;;;;;;;4.90;3.72;;;;;;;;;;5072921;28;20056;-69
2023/08/11 09:02:30;;;;;;;4.85;3.13;;;;;;;;;;5055150;28;20139;-68
2023/08/11 09:04:58;;;;;;;4.18;3.28;;;;;;;;;;5073011;28;20516;-67
2023/08/11 09:07:26;;;;;;;4.03;2.80;;;;;;;;;;5072984;28;20493;-68
2023/08/11 09:09:54;;;;;;;4.18;2.67;;;;;;;;;;5073039;28;20121;-68
2023/08/11 09:12:24;;;;;;;6.47;3.10;;;;;;;;;;5072999;28;20040;-68
2023/08/11 09:14:51;;;;;;;5.30;3.25;;;;;;;;;;5072944;28;20047;-69
2023/08/11 09:17:19;;;;;;;4.05;2.90;;;;;;;;;;5072890;28;20040;-68
2023/08/11 09:19:51;;;;;;;5.40;2.92;;;;;;;;;;5072784;28;20050;-69
2023/08/11 09:22:25;;;;;;;3.03;2.50;;;;;;;;;;5072749;28;20483;-69
2023/08/11 09:24:54;;;;;;;4.05;3.20;;;;;;;;;;5071898;28;20045;-69
2023/08/11 09:27:21;;;;;;;5.50;3.50;;;;;;;;;;5054755;28;20040;-69
2023/08/11 09:29:49;;;;;;;4.57;2.88;;;;;;;;;;5072734;28;20040;-68
2023/08/11 09:32:17;;;;;;;2.97;2.63;;;;;;;;;;5072707;28;20066;-69
2023/08/11 09:34:44;;;;;;;3.40;2.65;;;;;;;;;;5072578;28;20481;-69
2023/08/11 09:37:12;;;;;;;5.45;3.33;;;;;;;;;;5072654;28;20139;-69
2023/08/11 09:39:42;;;;;;;3.95;3.05;;;;;;;;;;5072374;28;20043;-69
2023/08/11 09:42:09;;;;;;;4.25;3.08;;;;;;;;;;5072072;28;20499;-69
2023/08/11 09:44:38;;;;;;;5.55;2.92;;;;;;;;;;5072579;28;20090;-69
2023/08/11 09:47:05;;;;;;;5.57;3.00;;;;;;;;;;5072511;28;20510;-69
2023/08/11 09:49:47;;;;;;;5.55;2.70;;;;;;;;;;5072441;28;20040;-70
2023/08/11 09:52:15;;;;;;;6.25;3.10;;;;;;;;;;5072407;28;20086;-69
2023/08/11 09:54:43;;;;;;;3.20;2.78;;;;;;;;;;5072563;28;20037;-70
2023/08/11 09:57:13;;;;;;;4.78;3.17;;;;;;;;;;5072497;28;20124;-69
2023/08/11 09:59:41;;;;;;;5.30;3.13;;;;;;;;;;5072190;28;20044;-69
2023/08/11 10:02:13;;;;;;;3.95;3.00;;;;;;;;;;5072390;28;20040;-68
2023/08/11 10:04:43;;;;;;;3.63;2.67;;;;;;;;;;5071619;28;20029;-68
2023/08/11 10:07:13;;;;;;;6.47;3.25;;;;;;;;;;5073936;28;20032;-70
2023/08/11 10:09:42;;;;;;;3.97;2.80;;;;;;;;;;5078936;28;20068;-69
2023/08/11 10:12:10;;;;;;;6.15;3.70;;;;;;;;;;5078184;28;20543;-68
2023/08/11 10:14:39;;;;;;;5.28;3.38;;;;;;;;;;5078104;28;20097;-70
2023/08/11 10:17:08;;;;;;;3.95;2.60;;;;;;;;;;5078898;28;20398;-70
2023/08/11 10:19:37;;;;;;;4.75;2.70;;;;;;;;;;5078810;28;20456;-69
2023/08/11 10:22:05;;;;;;;3.78;2.50;;;;;;;;;;5078700;28;20044;-69
2023/08/11 10:24:37;;;;;;;5.13;2.65;;;;;;;;;;5078743;28;20036;-69
2023/08/11 10:27:05;;;;;;;3.83;2.60;;;;;;;;;;5078736;28;20119;-69
2023/08/11 10:29:36;;;;;;;3.97;3.10;;;;;;;;;;5078815;28;20044;-69
2023/08/11 10:32:04;;;;;;;6.18;3.42;;;;;;;;;;5078478;28;20126;-69
2023/08/11 10:34:33;;;;;;;4.25;3.08;;;;;;;;;;5078585;28;20079;-68
2023/08/11 10:37:00;;;;;;;4.78;3.03;;;;;;;;;;5078567;28;20045;-69
2023/08/11 10:39:28;;;;;;;4.22;3.25;;;;;;;;;;5078583;28;20045;-68
2023/08/11 10:41:57;;;;;;;5.28;3.45;;;;;;;;;;5078546;28;20048;-69
2023/08/11 10:44:28;;;;;;;5.68;2.60;;;;;;;;;;5078510;28;20067;-69
2023/08/11 10:47:03;;;;;;;3.30;2.70;;;;;;;;;;5078149;28;20098;-67
2023/08/11 10:49:33;;;;;;;2.90;2.60;;;;;;;;;;5060773;28;20111;-67
2023/08/11 10:52:01;;;;;;;7.80;3.53;;;;;;;;;;5060914;28;20033;-71
2023/08/11 10:54:29;;;;;;;5.38;3.13;;;;;;;;;;5078487;28;20048;-65
2023/08/11 10:56:59;;;;;;;6.40;2.85;;;;;;;;;;5078373;28;20068;-73
2023/08/11 10:59:30;;;;;;;4.30;2.90;;;;;;;;;;5078324;28;20048;-69
2023/08/11 11:02:01;;;;;;;5.20;2.90;;;;;;;;;;5078794;28;20064;-70
2023/08/11 11:04:30;;;;;;;5.05;3.10;;;;;;;;;;5079440;28;20044;-71
2023/08/11 11:07:01;;;;;;;4.45;2.78;;;;;;;;;;5045464;28;20127;-72
2023/08/11 11:09:29;;;;;;;8.88;3.22;;;;;;;;;;5060679;28;20080;-72
2023/08/11 11:11:57;;;;;;;6.35;3.30;;;;;;;;;;5078423;28;20443;-72
2023/08/11 11:14:25;;;;;;;6.10;3.10;;;;;;;;;;5078535;28;20044;-72
2023/08/11 11:16:58;;;;;;;4.65;3.00;;;;;;;;;;5060450;28;20048;-72
2023/08/11 11:19:29;;;;;;;5.75;3.25;;;;;;;;;;5075365;28;20048;-72
2023/08/11 11:21:56;;;;;;;8.55;6.53;;;;;;;;;;5075134;28;20036;-71
2023/08/11 11:24:24;;;;;;;4.30;2.50;;;;;;;;;;5075390;28;20051;-71
2023/08/11 11:26:52;;;;;;;3.63;2.25;;;;;;;;;;5057440;28;20139;-71
2023/08/11 11:29:23;;;;;;;4.97;3.22;;;;;;;;;;5075038;28;20511;-72
2023/08/11 11:31:51;;;;;;;5.40;3.40;;;;;;;;;;5074995;28;20131;-72
2023/08/11 11:34:20;;;;;;;3.08;2.35;;;;;;;;;;5057087;28;20062;-72
2023/08/11 11:36:48;;;;;;;5.10;2.50;;;;;;;;;;5056881;28;20053;-72
2023/08/11 11:39:15;;;;;;;3.47;2.20;;;;;;;;;;5074839;28;20035;-70
2023/08/11 11:41:43;;;;;;;5.47;3.00;;;;;;;;;;5074561;28;20125;-71
2023/08/11 11:44:10;;;;;;;4.78;2.80;;;;;;;;;;5074823;28;20124;-72
2023/08/11 11:46:38;;;;;;;54.67;38.47;;;;;;;;;;5074809;28;20047;-72
2023/08/11 11:49:07;;;;;;;9.48;5.45;;;;;;;;;;5074573;28;20482;-71
2023/08/11 11:51:55;;;;;;;3.83;2.17;;;;;;;;;;5075194;28;20491;-71
2023/08/11 11:54:22;;;;;;;11.57;7.28;;;;;;;;;;5074418;28;20040;-72
2023/08/11 11:56:50;;;;;;;10.10;6.82;;;;;;;;;;5074720;28;20508;-71
2023/08/11 11:59:31;;;;;;;4.53;3.20;;;;;;;;;;5074075;28;20057;-72
2023/08/11 12:02:03;;;;;;;6.55;3.53;;;;;;;;;;5074524;28;20390;-72
2023/08/11 12:04:31;;;;;;;8.48;5.90;;;;;;;;;;5074354;28;20047;-72
2023/08/11 12:07:01;;;;;;;3.33;2.63;;;;;;;;;;5074215;28;20094;-71
2023/08/11 12:09:29;;;;;;;3.50;2.60;;;;;;;;;;5074333;28;20052;-71
2023/08/11 12:11:56;;;;;;;78.57;48.65;;;;;;;;;;5073322;28;20094;-72
2023/08/11 12:14:27;;;;;;;5.72;3.67;;;;;;;;;;5073445;28;20098;-73
2023/08/11 12:16:57;;;;;;;13.65;11.40;;;;;;;;;;5073365;28;20067;-71
2023/08/11 12:19:25;;;;;;;7.30;4.80;;;;;;;;;;5073363;28;20047;-71
2023/08/11 12:21:52;;;;;;;28.95;21.40;;;;;;;;;;5073271;28;20041;-71
2023/08/11 12:24:21;;;;;;;14.13;11.25;;;;;;;;;;5055482;28;20037;-71
2023/08/11 12:26:49;;;;;;;13.40;9.35;;;;;;;;;;5073419;28;20131;-71
2023/08/11 12:29:16;;;;;;;2.95;2.20;;;;;;;;;;5073521;28;20051;-71
2023/08/11 12:31:44;;;;;;;33.83;27.08;;;;;;;;;;5053929;28;20098;-71
2023/08/11 12:34:11;;;;;;;9.32;6.90;;;;;;;;;;5073419;28;20040;-70
2023/08/11 12:36:39;;;;;;;13.80;9.68;;;;;;;;;;5073620;28;20043;-71
2023/08/11 12:39:07;;;;;;;19.75;15.15;;;;;;;;;;5073561;28;20101;-71
2023/08/11 12:41:35;;;;;;;11.00;6.15;;;;;;;;;;5073467;28;20441;-70
2023/08/11 12:44:02;;;;;;;24.25;17.80;;;;;;;;;;5073472;28;20075;-71
2023/08/11 12:46:30;;;;;;;7.38;4.97;;;;;;;;;;5055613;28;20052;-70
2023/08/11 12:48:58;;;;;;;4.72;2.90;;;;;;;;;;5073322;28;20467;-69
2023/08/11 12:51:25;;;;;;;7.45;3.55;;;;;;;;;;5073383;28;20068;-63
2023/08/11 12:53:53;;;;;;;6.05;3.92;;;;;;;;;;5073399;28;20040;-69
2023/08/11 12:56:21;;;;;;;4.03;3.22;;;;;;;;;;5054679;28;20502;-69
2023/08/11 12:58:48;;;;;;;4.53;2.40;;;;;;;;;;5072726;28;20036;-69
2023/08/11 13:01:16;;;;;;;8.20;6.05;;;;;;;;;;5072705;28;20406;-70
2023/08/11 13:03:44;;;;;;;40.63;32.42;;;;;;;;;;5073016;28;20052;-68
2023/08/11 13:06:12;;;;;;;14.63;10.52;;;;;;;;;;5073098;28;20064;-68
2023/08/11 13:08:40;;;;;;;12.63;8.85;;;;;;;;;;5073129;28;20108;-71
2023/08/11 13:11:07;;;;;;;11.05;8.02;;;;;;;;;;5072406;28;20547;-71
2023/08/11 13:13:35;;;;;;;60.05;45.60;;;;;;;;;;5072769;28;20032;-71
2023/08/11 13:16:03;;;;;;;12.48;8.73;;;;;;;;;;5072796;28;20059;-71
2023/08/11 13:18:30;;;;;;;5.30;3.58;;;;;;;;;;5072952;28;20052;-71
2023/08/11 13:20:58;;;;;;;3.88;2.95;;;;;;;;;;5072693;28;20059;-71
2023/08/11 13:23:28;;;;;;;3.53;2.40;;;;;;;;;;5072940;28;20036;-71
2023/08/11 13:25:56;;;;;;;8.07;4.88;;;;;;;;;;5072550;28;20064;-71
2023/08/11 13:28:23;;;;;;;7.72;5.93;;;;;;;;;;5065742;28;20079;-71
2023/08/11 13:30:51;;;;;;;7.97;5.22;;;;;;;;;;5071143;28;20389;-71
2023/08/11 13:33:18;;;;;;;4.22;1.88;;;;;;;;;;5072428;28;20037;-72
2023/08/11 13:35:47;;;;;;;3.00;2.20;;;;;;;;;;5072229;28;20079;-72
2023/08/11 13:38:15;;;;;;;4.45;3.28;;;;;;;;;;5072112;28;20036;-73
2023/08/11 13:40:43;;;;;;;5.57;3.72;;;;;;;;;;5071678;28;20391;-72
2023/08/11 13:43:11;;;;;;;3.42;2.30;;;;;;;;;;5071729;28;20474;-74
2023/08/11 13:45:38;;;;;;;3.13;2.20;;;;;;;;;;5071830;28;20223;-72
2023/08/11 13:48:06;;;;;;;6.13;3.85;;;;;;;;;;5072543;28;20108;-72
2023/08/11 13:50:34;;;;;;;2.97;1.80;;;;;;;;;;5054699;28;20132;-73
2023/08/11 13:53:01;;;;;;;3.08;2.45;;;;;;;;;;5054669;28;20071;-73
2023/08/11 13:55:29;;;;;;;5.80;3.78;;;;;;;;;;5072397;28;20520;-73
2023/08/11 13:57:56;;;;;;;4.55;2.38;;;;;;;;;;5054464;28;20055;-73
2023/08/11 14:00:24;;;;;;;4.72;3.35;;;;;;;;;;5072420;28;20487;-73
2023/08/11 14:02:52;;;;;;;2.17;1.98;;;;;;;;;;5072298;28;20050;-73
2023/08/11 14:05:19;;;;;;;5.70;3.50;;;;;;;;;;5072339;28;20127;-73
2023/08/11 14:07:50;;;;;;;2.30;2.00;;;;;;;;;;5071658;28;20050;-72
2023/08/11 14:10:18;;;;;;;5.47;4.07;;;;;;;;;;5052227;28;20098;-72
2023/08/11 14:12:45;;;;;;;2.30;2.10;;;;;;;;;;5063226;28;20052;-72
2023/08/11 14:15:13;;;;;;;5.35;3.90;;;;;;;;;;5059046;28;20047;-71
2023/08/11 14:17:41;;;;;;;4.53;2.05;;;;;;;;;;5058679;28;20044;-73
2023/08/11 14:20:09;;;;;;;2.72;1.90;;;;;;;;;;5066318;28;20060;-73
2023/08/11 14:22:37;;;;;;;4.53;2.72;;;;;;;;;;5066383;28;20052;-72
2023/08/11 14:25:05;;;;;;;4.07;2.58;;;;;;;;;;5046570;28;20190;-72
2023/08/11 14:27:32;;;;;;;3.53;2.05;;;;;;;;;;5037122;28;20044;-71
2023/08/11 14:30:00;;;;;;;2.83;2.22;;;;;;;;;;5066385;28;20055;-73
2023/08/11 14:32:28;;;;;;;6.90;5.40;;;;;;;;;;5058272;28;20045;-74
2023/08/11 14:34:56;;;;;;;3.60;2.47;;;;;;;;;;5050912;28;20463;-73
2023/08/11 14:37:24;;;;;;;9.63;8.00;;;;;;;;;;5048782;28;20573;-73
2023/08/11 14:39:51;;;;;;;4.72;2.53;;;;;;;;;;5066739;28;20044;-70
2023/08/11 14:42:19;;;;;;;5.20;3.78;;;;;;;;;;5063479;28;20118;-71
2023/08/11 14:44:46;;;;;;;4.40;2.28;;;;;;;;;;5055991;28;20117;-71
2023/08/11 14:47:14;;;;;;;2.30;1.60;;;;;;;;;;5066419;28;20044;-71
2023/08/11 14:49:43;;;;;;;2.85;2.10;;;;;;;;;;5066504;28;20110;-72